createdAt,value
2022-08-05T01:16:55.204Z,66.08
2022-08-05T01:20:00.912Z,66.28
2022-08-05T01:22:18.835Z,66.41
2022-08-05T01:24:54.186Z,66.79
2022-08-05T01:27:25.267Z,66.97
2022-08-05T01:29:56.052Z,67.39
2022-08-05T01:32:27.610Z,67.64
2022-08-05T01:34:58.567Z,67.79
2022-08-05T01:37:32.955Z,68.50
2022-08-05T01:40:03.586Z,68.32
2022-08-05T01:42:31.760Z,68.43
2022-08-05T01:45:02.296Z,68.89
2022-08-05T01:47:39.426Z,68.77
2022-08-05T01:50:04.113Z,68.94
2022-08-05T01:52:35.994Z,68.98
2022-08-05T01:55:06.594Z,69.25
2022-08-05T01:58:11.871Z,69.27
2022-08-05T02:00:12.300Z,69.40
2022-08-05T02:02:53.693Z,69.52
2022-08-05T02:05:23.314Z,69.82
2022-08-05T02:08:01.242Z,69.71
2022-08-05T02:10:20.498Z,69.81
2022-08-05T02:12:55.015Z,69.89
2022-08-05T02:15:26.181Z,70.19
2022-08-05T02:18:30.820Z,70.54
2022-08-05T02:20:54.715Z,70.18
2022-08-05T02:23:26.691Z,70.30
2022-08-05T02:25:58.370Z,70.31
2022-08-05T02:28:32.988Z,70.43
2022-08-05T02:31:02.289Z,70.59
2022-08-05T02:33:38.859Z,70.55
2022-08-05T02:36:09.396Z,70.56
2022-08-05T02:38:37.637Z,70.67
2022-08-05T02:41:16.942Z,70.93
2022-08-05T02:43:38.507Z,71.05
2022-08-05T02:46:08.294Z,70.90
2022-08-05T02:48:37.615Z,71.06
2022-08-05T02:51:05.992Z,71.16
2022-08-05T02:53:39.725Z,71.35
2022-08-05T02:56:10.687Z,71.45
2022-08-05T02:58:43.619Z,71.58
2022-08-05T03:01:14.188Z,71.53
2022-08-05T03:04:02.101Z,71.73
2022-08-05T03:06:55.444Z,71.74
2022-08-05T03:08:43.424Z,71.83
2022-08-05T03:11:55.202Z,72.15
2022-08-05T03:13:52.155Z,72.13
2022-08-05T03:16:20.278Z,72.33
2022-08-05T03:18:47.850Z,72.39
2022-08-05T03:21:16.486Z,72.84
2022-08-05T03:23:45.618Z,72.66
2022-08-05T03:26:30.955Z,73.15
2022-08-05T03:28:43.305Z,72.87
2022-08-05T03:31:10.775Z,73.14
2022-08-05T03:33:49.265Z,73.17
2022-08-05T03:36:13.218Z,73.03
2022-08-05T03:38:42.897Z,73.09
2022-08-05T03:41:12.532Z,72.91
2022-08-05T03:44:08.598Z,73.09
2022-08-05T03:46:09.900Z,73.22
2022-08-05T03:48:37.689Z,74.17
2022-08-05T03:52:36.558Z,73.78
2022-08-05T03:55:34.462Z,73.94
2022-08-05T03:56:46.286Z,72.62
2022-08-05T03:59:25.720Z,69.73
2022-08-05T04:01:59.107Z,67.15
2022-08-05T04:04:26.900Z,64.11
2022-08-05T04:06:57.907Z,61.28
2022-08-05T04:09:26.845Z,59.97
2022-08-05T04:11:56.423Z,58.47
2022-08-05T04:14:30.536Z,57.55
2022-08-05T04:16:56.135Z,55.03
2022-08-05T04:19:23.532Z,53.40
2022-08-05T04:22:09.257Z,51.81
2022-08-05T04:24:22.586Z,50.36
2022-08-05T04:26:50.784Z,48.87
2022-08-05T04:29:18.705Z,46.91
2022-08-05T04:31:48.440Z,47.22
2022-08-05T04:34:31.270Z,46.90
2022-08-05T04:36:49.852Z,45.75
2022-08-05T04:39:15.541Z,45.47
2022-08-05T04:41:43.033Z,44.97
2022-08-05T04:44:12.565Z,44.82
2022-08-05T04:46:42.971Z,43.89
2022-08-05T04:49:14.814Z,43.41
2022-08-05T04:51:43.541Z,43.11
2022-08-05T04:54:11.978Z,42.16
2022-08-05T04:56:40.115Z,42.44
2022-08-05T04:59:24.039Z,41.00
2022-08-05T05:02:07.316Z,40.47
2022-08-05T05:04:07.119Z,41.72
2022-08-05T05:06:40.534Z,40.08
2022-08-05T05:09:05.476Z,40.18
2022-08-05T05:11:41.470Z,40.44
2022-08-05T05:14:03.159Z,40.15
2022-08-05T05:16:30.565Z,40.56
2022-08-05T05:19:18.906Z,41.01
2022-08-05T05:21:27.617Z,40.74
2022-08-05T05:24:02.889Z,42.23
2022-08-05T05:26:28.298Z,42.12
2022-08-05T05:28:55.734Z,42.08
2022-08-05T05:31:24.602Z,42.21
2022-08-05T05:33:59.085Z,41.74
2022-08-05T05:36:22.682Z,41.73
2022-08-05T05:38:50.711Z,42.41
2022-08-05T05:41:18.524Z,42.30
2022-08-05T05:43:57.193Z,42.13
2022-08-05T05:46:17.616Z,42.74
2022-08-05T05:48:47.905Z,42.38
2022-08-05T05:51:21.182Z,42.64
2022-08-05T05:53:57.996Z,43.36
2022-08-05T05:56:26.195Z,43.68
2022-08-05T05:58:49.346Z,43.44
2022-08-05T06:01:17.747Z,42.53
2022-08-05T06:04:00.614Z,42.96
2022-08-05T06:06:16.363Z,42.02
2022-08-05T06:08:43.895Z,41.36
2022-08-05T06:11:13.376Z,40.93
2022-08-05T06:13:50.237Z,40.22
2022-08-05T06:16:30.385Z,39.58
2022-08-05T06:18:39.842Z,39.35
2022-08-05T06:21:08.041Z,39.71
2022-08-05T06:23:44.219Z,39.12
2022-08-05T06:26:19.395Z,37.71
2022-08-05T06:28:36.485Z,38.34
2022-08-05T06:31:11.302Z,37.71
2022-08-05T06:34:06.889Z,37.98
2022-08-05T06:36:09.795Z,38.63
2022-08-05T06:38:36.013Z,38.28
2022-08-05T06:41:01.723Z,38.40
2022-08-05T06:43:58.655Z,38.80
2022-08-05T06:46:03.635Z,38.31
2022-08-05T06:48:52.830Z,37.33
2022-08-05T06:51:00.084Z,36.88
2022-08-05T06:53:29.178Z,35.50
2022-08-05T06:55:58.624Z,34.32
2022-08-05T06:58:34.866Z,33.72
2022-08-05T07:01:01.411Z,34.14
2022-08-05T07:03:32.431Z,33.80
2022-08-05T07:05:59.094Z,33.69
2022-08-05T07:08:29.478Z,33.76
2022-08-05T07:10:57.075Z,34.46
2022-08-05T07:13:59.283Z,33.84
2022-08-05T07:17:59.793Z,32.18
2022-08-05T07:19:00.730Z,32.37
2022-08-05T07:21:30.215Z,31.84
2022-08-05T07:24:01.318Z,32.32
2022-08-05T07:26:28.929Z,32.27
2022-08-05T07:28:56.369Z,32.22
2022-08-05T07:31:40.779Z,31.86
2022-08-05T07:33:55.098Z,31.13
2022-08-05T07:36:25.041Z,31.31
2022-08-05T07:38:54.960Z,30.75
2022-08-05T07:42:14.488Z,30.53
2022-08-05T07:43:55.095Z,30.43
2022-08-05T07:46:26.858Z,29.65
2022-08-05T07:49:02.068Z,29.22
2022-08-05T07:51:40.435Z,29.49
2022-08-05T07:53:55.895Z,29.47
2022-08-05T07:56:59.865Z,29.60
2022-08-05T07:58:54.768Z,29.31
2022-08-05T08:01:24.128Z,29.28
2022-08-05T08:03:51.690Z,28.56
2022-08-05T08:06:22.554Z,29.45
2022-08-05T08:08:51.928Z,30.18
2022-08-05T08:11:19.581Z,30.25
2022-08-05T08:14:00.466Z,30.91
2022-08-05T08:16:34.642Z,30.31
2022-08-05T08:18:50.019Z,30.58
2022-08-05T08:21:17.868Z,31.49
2022-08-05T08:24:01.569Z,30.63
2022-08-05T08:26:15.193Z,30.80
2022-08-05T08:28:55.215Z,31.23
2022-08-05T08:31:16.409Z,30.49
2022-08-05T08:33:42.642Z,29.56
2022-08-05T08:36:38.938Z,29.38
2022-08-05T08:38:40.929Z,29.78
2022-08-05T08:41:10.608Z,28.74
2022-08-05T08:45:20.551Z,29.17
2022-08-05T08:46:15.587Z,28.60
2022-08-05T08:49:06.239Z,28.73
2022-08-05T08:52:01.693Z,28.38
2022-08-05T08:53:45.278Z,28.55
2022-08-05T08:56:10.570Z,28.64
2022-08-05T08:58:44.659Z,27.87
2022-08-05T09:01:10.891Z,28.59
2022-08-05T09:03:44.994Z,28.39
2022-08-05T09:06:12.117Z,28.53
2022-08-05T09:08:40.262Z,28.13
2022-08-05T09:11:07.238Z,28.17
2022-08-05T09:14:00.917Z,28.81
2022-08-05T09:16:07.497Z,28.48
2022-08-05T09:18:41.319Z,28.46
2022-08-05T09:21:11.477Z,27.84
2022-08-05T09:23:37.502Z,28.25
2022-08-05T09:26:09.902Z,27.42
2022-08-05T09:28:39.502Z,27.20
2022-08-05T09:31:23.024Z,27.84
2022-08-05T09:33:58.278Z,27.27
2022-08-05T09:36:33.135Z,27.13
2022-08-05T09:39:01.392Z,27.24
2022-08-05T09:41:33.218Z,26.94
2022-08-05T09:44:00.086Z,26.84
2022-08-05T09:46:30.348Z,27.20
2022-08-05T09:49:07.773Z,26.53
2022-08-05T09:51:39.968Z,26.79
2022-08-05T09:54:09.425Z,27.21
2022-08-05T09:56:38.865Z,26.62
2022-08-05T09:59:09.471Z,27.60
2022-08-05T10:01:45.745Z,28.12
2022-08-05T10:04:16.142Z,27.18
2022-08-05T10:06:59.361Z,27.05
2022-08-05T10:09:28.133Z,27.43
2022-08-05T10:12:31.403Z,28.10
2022-08-05T10:14:40.609Z,28.33
2022-08-05T10:17:39.771Z,28.19
2022-08-05T10:20:03.549Z,27.97
2022-08-05T10:22:30.030Z,27.66
2022-08-05T10:24:46.025Z,27.38
2022-08-05T10:27:14.598Z,27.46
2022-08-05T10:30:41.365Z,27.04
2022-08-05T10:32:52.513Z,26.95
2022-08-05T10:34:48.940Z,26.83
2022-08-05T10:37:21.009Z,27.04
2022-08-05T10:39:59.346Z,26.85
2022-08-05T10:42:33.574Z,26.04
2022-08-05T10:44:55.126Z,26.36
2022-08-05T10:47:39.576Z,26.86
2022-08-05T10:50:33.177Z,27.40
2022-08-05T10:52:49.835Z,26.84
2022-08-05T10:55:18.546Z,26.57
2022-08-05T10:57:46.567Z,26.26
2022-08-05T11:00:23.715Z,26.41
2022-08-05T11:03:25.563Z,26.81
2022-08-05T11:05:41.590Z,27.12
2022-08-05T11:08:34.289Z,27.48
2022-08-05T11:10:50.438Z,27.26
2022-08-05T11:13:15.521Z,27.34
2022-08-05T11:16:00.662Z,26.64
2022-08-05T11:18:27.383Z,26.88
2022-08-05T11:20:57.292Z,26.46
2022-08-05T11:24:03.951Z,26.20
2022-08-05T11:26:11.142Z,26.08
2022-08-05T11:28:43.362Z,25.57
2022-08-05T11:31:19.647Z,25.71
2022-08-05T11:33:54.336Z,25.58
2022-08-05T11:36:46.885Z,25.63
2022-08-05T11:39:19.755Z,25.04
2022-08-05T11:42:01.767Z,25.82
2022-08-05T11:44:40.953Z,25.86
2022-08-05T11:46:58.196Z,25.53
2022-08-05T11:49:23.138Z,25.34
2022-08-05T11:51:53.011Z,25.43
2022-08-05T11:54:33.537Z,25.28
2022-08-05T11:56:57.509Z,25.44
2022-08-05T11:59:28.951Z,24.63
2022-08-05T12:02:07.602Z,24.79
2022-08-05T12:04:45.252Z,25.40
2022-08-05T12:07:16.340Z,25.32
2022-08-05T12:09:53.251Z,25.01
2022-08-05T12:12:23.072Z,25.08
2022-08-05T12:14:52.879Z,25.11
2022-08-05T12:18:03.900Z,24.93
2022-08-05T12:20:16.991Z,25.04
2022-08-05T12:22:36.495Z,25.00
2022-08-05T12:25:06.559Z,24.90
2022-08-05T12:27:37.003Z,24.61
2022-08-05T12:30:15.607Z,24.68
2022-08-05T12:32:51.665Z,25.23
2022-08-05T12:35:23.128Z,24.48
2022-08-05T12:38:01.945Z,24.86
2022-08-05T12:40:44.101Z,24.98
2022-08-05T12:43:20.829Z,24.49
2022-08-05T12:45:53.554Z,24.96
2022-08-05T12:48:32.480Z,24.90
2022-08-05T12:52:10.414Z,24.73
2022-08-05T12:53:55.734Z,24.86
2022-08-05T12:56:34.490Z,24.93
2022-08-05T12:59:20.788Z,24.83
2022-08-05T13:02:00.356Z,25.08
2022-08-05T13:04:20.975Z,25.79
2022-08-05T13:06:51.982Z,25.16
2022-08-05T13:09:28.014Z,25.38
2022-08-05T13:12:02.289Z,25.60
2022-08-05T13:14:24.850Z,25.77
2022-08-05T13:17:00.948Z,24.95
2022-08-05T13:19:51.106Z,24.87
2022-08-05T13:21:58.926Z,25.05
2022-08-05T13:24:27.808Z,25.14
2022-08-05T13:26:57.758Z,24.94
2022-08-05T13:29:37.502Z,24.94
2022-08-05T13:32:03.911Z,25.41
2022-08-05T13:34:27.586Z,24.84
2022-08-05T13:36:55.722Z,25.08
2022-08-05T13:40:14.484Z,25.39
2022-08-05T13:41:52.878Z,25.24
2022-08-05T13:44:20.818Z,25.27
2022-08-05T13:47:02.568Z,25.65
2022-08-05T13:49:18.459Z,25.82
2022-08-05T13:51:47.129Z,25.00
2022-08-05T13:54:16.600Z,25.53
2022-08-05T13:56:51.100Z,25.80
2022-08-05T13:59:19.976Z,25.46
2022-08-05T14:01:56.279Z,25.61
2022-08-05T14:04:31.835Z,25.52
2022-08-05T14:07:12.107Z,25.85
2022-08-05T14:09:30.561Z,25.99
2022-08-05T14:12:04.663Z,26.26
2022-08-05T14:14:30.836Z,26.00
2022-08-05T14:16:57.535Z,26.00
2022-08-05T14:19:25.394Z,26.22
2022-08-05T14:22:10.085Z,26.31
2022-08-05T14:24:23.330Z,26.31
2022-08-05T14:27:08.533Z,26.44
2022-08-05T14:29:20.376Z,26.51
2022-08-05T14:32:02.830Z,26.28
2022-08-05T14:34:19.333Z,26.40
2022-08-05T14:36:48.852Z,26.54
2022-08-05T14:39:23.261Z,26.47
2022-08-05T14:42:08.781Z,26.82
2022-08-05T14:44:21.782Z,26.67
2022-08-05T14:46:45.294Z,25.91
2022-08-05T14:49:13.562Z,26.12
2022-08-05T14:51:42.461Z,26.61
2022-08-05T14:54:28.426Z,27.11
2022-08-05T14:56:44.187Z,27.08
2022-08-05T14:59:10.926Z,27.26
2022-08-05T15:01:47.946Z,27.27
2022-08-05T15:04:13.574Z,27.51
2022-08-05T15:06:41.337Z,27.32
2022-08-05T15:09:10.715Z,27.32
2022-08-05T15:11:51.141Z,27.49
2022-08-05T15:14:09.682Z,27.38
2022-08-05T15:16:37.343Z,27.72
2022-08-05T15:19:06.680Z,27.44
2022-08-05T15:21:36.147Z,27.46
2022-08-05T15:24:05.955Z,27.69
2022-08-05T15:26:33.723Z,27.52
2022-08-05T15:29:02.558Z,27.37
2022-08-05T15:31:34.552Z,27.69
2022-08-05T15:34:19.134Z,27.40
2022-08-05T15:36:32.077Z,27.57
2022-08-05T15:40:40.969Z,27.66
2022-08-05T15:41:56.285Z,27.81
2022-08-05T15:44:00.202Z,27.37
2022-08-05T15:46:27.868Z,27.68
2022-08-05T15:49:01.450Z,27.82
2022-08-05T15:52:10.083Z,27.80
2022-08-05T15:53:55.949Z,27.62
2022-08-05T15:56:25.114Z,27.80
2022-08-05T15:58:54.833Z,27.88
2022-08-05T16:01:29.429Z,28.12
2022-08-05T16:03:54.209Z,28.09
2022-08-05T16:06:24.251Z,28.33
2022-08-05T16:08:55.203Z,28.30
2022-08-05T16:11:40.163Z,28.51
2022-08-05T16:13:51.302Z,28.65
2022-08-05T16:16:25.087Z,28.89
2022-08-05T16:18:52.243Z,28.62
2022-08-05T16:21:58.720Z,28.98
2022-08-05T16:24:03.481Z,29.02
2022-08-05T16:26:30.205Z,29.27
2022-08-05T16:28:58.840Z,29.04
2022-08-05T16:31:26.511Z,29.28
2022-08-05T16:33:58.216Z,29.32
2022-08-05T16:36:28.795Z,29.39
2022-08-05T16:38:59.293Z,29.36
2022-08-05T16:42:12.221Z,29.74
2022-08-05T16:43:57.767Z,30.03
2022-08-05T16:46:25.546Z,30.01
2022-08-05T16:48:55.695Z,30.23
2022-08-05T16:51:24.495Z,30.28
2022-08-05T16:54:05.649Z,30.58
2022-08-05T16:56:31.263Z,30.80
2022-08-05T16:59:07.946Z,31.01
2022-08-05T17:01:54.221Z,31.27
2022-08-05T17:04:09.355Z,31.17
2022-08-05T17:06:37.986Z,31.30
2022-08-05T17:09:09.747Z,31.63
2022-08-05T17:11:48.635Z,31.84
2022-08-05T17:14:07.141Z,31.80
2022-08-05T17:16:37.975Z,32.07
2022-08-05T17:19:07.517Z,31.93
2022-08-05T17:21:36.771Z,32.25
2022-08-05T17:24:19.689Z,32.20
2022-08-05T17:26:38.518Z,32.27
2022-08-05T17:29:10.213Z,32.58
2022-08-05T17:31:56.392Z,32.66
2022-08-05T17:34:07.047Z,32.96
2022-08-05T17:36:40.672Z,32.98
2022-08-05T17:39:05.560Z,33.32
2022-08-05T17:42:17.447Z,33.41
2022-08-05T17:44:04.433Z,33.52
2022-08-05T17:46:32.629Z,33.96
2022-08-05T17:49:00.269Z,34.40
2022-08-05T17:51:28.444Z,34.67
2022-08-05T17:53:57.786Z,35.18
2022-08-05T17:56:28.348Z,35.69
2022-08-05T17:58:55.088Z,37.60
2022-08-05T18:01:22.573Z,38.77
2022-08-05T18:04:05.746Z,39.10
2022-08-05T18:06:29.370Z,39.05
2022-08-05T18:08:53.280Z,39.34
2022-08-05T18:11:33.196Z,39.01
2022-08-05T18:13:59.538Z,39.66
2022-08-05T18:16:27.565Z,40.12
2022-08-05T18:18:55.625Z,41.02
2022-08-05T18:21:26.499Z,41.55
2022-08-05T18:23:54.818Z,42.96
2022-08-05T18:26:27.578Z,43.26
2022-08-05T18:28:57.558Z,44.42
2022-08-05T18:31:33.085Z,45.12
2022-08-05T18:33:56.668Z,45.80
2022-08-05T18:36:27.969Z,46.26
2022-08-05T18:38:55.503Z,47.12
2022-08-05T18:41:57.470Z,48.23
2022-08-05T18:43:53.241Z,48.27
2022-08-05T18:46:20.903Z,49.65
2022-08-05T18:48:51.819Z,49.64
2022-08-05T18:52:05.668Z,49.47
2022-08-05T18:54:11.790Z,49.70
2022-08-05T18:56:39.342Z,49.97
2022-08-05T18:59:43.090Z,49.98
2022-08-05T19:01:47.760Z,49.49
2022-08-05T19:04:06.378Z,49.57
2022-08-05T19:06:44.738Z,49.87
2022-08-05T19:09:05.347Z,49.79
2022-08-05T19:11:37.016Z,49.91
2022-08-05T19:14:15.204Z,50.13
2022-08-05T19:16:47.063Z,50.20
2022-08-05T19:19:06.175Z,50.67
2022-08-05T19:21:36.290Z,50.46
2022-08-05T19:24:08.925Z,50.36
2022-08-05T19:26:35.094Z,51.17
2022-08-05T19:29:13.969Z,51.26
2022-08-05T19:31:50.894Z,51.39
2022-08-05T19:34:26.354Z,51.80
2022-08-05T19:37:05.042Z,51.80
2022-08-05T19:39:45.119Z,52.32
2022-08-05T19:42:09.226Z,52.68
2022-08-05T19:44:44.889Z,52.88
2022-08-05T19:47:11.235Z,52.93
2022-08-05T19:49:43.712Z,53.17
2022-08-05T19:52:30.917Z,53.27
2022-08-05T19:54:47.675Z,55.67
2022-08-05T19:57:18.654Z,55.89
2022-08-05T20:00:02.072Z,55.59
2022-08-05T20:02:18.534Z,55.34
2022-08-05T20:04:48.494Z,56.45
2022-08-05T20:07:16.214Z,56.59
2022-08-05T20:09:54.761Z,56.44
2022-08-05T20:12:17.677Z,56.28
2022-08-05T20:14:47.560Z,56.22
2022-08-05T20:17:23.173Z,56.38
2022-08-05T20:19:49.758Z,56.59
2022-08-05T20:22:17.276Z,56.56
2022-08-05T20:24:46.604Z,56.51
2022-08-05T20:27:14.263Z,56.82
2022-08-05T20:29:57.810Z,56.63
2022-08-05T20:32:13.127Z,56.66
2022-08-05T20:34:40.725Z,56.93
2022-08-05T20:37:17.834Z,56.92
2022-08-05T20:39:38.566Z,57.30
2022-08-05T20:42:07.886Z,57.43
2022-08-05T20:44:37.913Z,57.77
2022-08-05T20:47:07.544Z,58.02
2022-08-05T20:49:39.355Z,59.77
2022-08-05T20:52:07.860Z,59.68
2022-08-05T20:54:43.479Z,59.55
2022-08-05T20:57:05.709Z,59.53
2022-08-05T21:00:10.607Z,59.55
2022-08-05T21:02:04.572Z,60.01
2022-08-05T21:04:35.466Z,60.12
2022-08-05T21:07:04.953Z,60.99
2022-08-05T21:09:34.826Z,61.12
2022-08-05T21:12:10.424Z,61.20
2022-08-05T21:14:35.068Z,61.17
2022-08-05T21:17:05.298Z,61.27
2022-08-05T21:19:47.268Z,61.28
2022-08-05T21:22:04.086Z,61.36
2022-08-05T21:24:33.601Z,61.22
2022-08-05T21:27:01.331Z,61.50
2022-08-05T21:29:31.828Z,61.38
2022-08-05T21:31:58.639Z,61.33
2022-08-05T21:34:26.267Z,61.31
2022-08-05T21:36:55.804Z,61.41
2022-08-05T21:39:26.785Z,61.27
2022-08-05T21:42:01.594Z,61.16
2022-08-05T21:44:27.116Z,61.28
2022-08-05T21:46:54.278Z,61.36
2022-08-05T21:49:59.295Z,61.30
2022-08-05T21:52:22.675Z,61.05
2022-08-05T21:54:27.886Z,61.07
2022-08-05T21:56:57.674Z,61.09
2022-08-05T21:59:24.433Z,60.93
2022-08-05T22:01:51.319Z,60.79
2022-08-05T22:04:25.373Z,60.80
2022-08-05T22:06:52.342Z,60.72
2022-08-05T22:09:21.153Z,60.68
2022-08-05T22:11:49.186Z,60.86
2022-08-05T22:14:32.931Z,61.22
2022-08-05T22:16:51.974Z,61.20
2022-08-05T22:20:01.791Z,61.32
2022-08-05T22:21:46.116Z,61.81
2022-08-05T22:24:40.534Z,61.77
2022-08-05T22:27:22.451Z,61.69
2022-08-05T22:29:49.937Z,61.90
2022-08-05T22:32:19.179Z,61.71
2022-08-05T22:34:47.344Z,61.71
2022-08-05T22:37:15.027Z,61.68
2022-08-05T22:39:43.576Z,61.84
2022-08-05T22:42:26.363Z,61.79
2022-08-05T22:44:47.050Z,61.71
2022-08-05T22:47:11.318Z,61.67
2022-08-05T22:50:17.972Z,61.64
2022-08-05T22:52:13.814Z,61.57
2022-08-05T22:54:39.067Z,61.52
2022-08-05T22:57:07.129Z,61.35
2022-08-05T22:59:48.334Z,61.24
2022-08-05T23:02:07.821Z,61.22
2022-08-05T23:04:36.002Z,60.99
2022-08-05T23:07:03.698Z,61.26
2022-08-05T23:09:57.531Z,61.14
2022-08-05T23:12:01.137Z,61.33
2022-08-05T23:14:32.038Z,61.22
2022-08-05T23:17:18.581Z,61.14
2022-08-05T23:19:51.099Z,61.08
2022-08-05T23:22:15.890Z,61.07
2022-08-05T23:24:48.509Z,60.96
2022-08-05T23:27:15.019Z,60.91
2022-08-05T23:29:42.654Z,60.90
2022-08-05T23:32:12.070Z,60.70
2022-08-05T23:34:39.933Z,60.79
2022-08-05T23:37:09.299Z,60.87
2022-08-05T23:39:53.806Z,60.98
2022-08-05T23:42:14.001Z,60.71
2022-08-05T23:44:37.291Z,60.72
2022-08-05T23:47:15.387Z,60.64
2022-08-05T23:49:36.191Z,60.74
2022-08-05T23:52:25.285Z,60.58
2022-08-05T23:54:54.781Z,60.97
2022-08-05T23:57:28.007Z,60.83
